sensor_id;sensor_type;location;lat;lon;timestamp;P1;durP1;ratioP1;P2;durP2;ratioP2
69894;SDS011;57172;52.034;5.090;2023-06-22T00:00:01;5.57;;;3.50;;
69894;SDS011;57172;52.034;5.090;2023-06-22T00:02:37;6.27;;;3.33;;
69894;SDS011;57172;52.034;5.090;2023-06-22T00:05:04;6.05;;;3.58;;
69894;SDS011;57172;52.034;5.090;2023-06-22T00:07:31;6.45;;;3.60;;
69894;SDS011;57172;52.034;5.090;2023-06-22T00:09:58;6.55;;;3.50;;
69894;SDS011;57172;52.034;5.090;2023-06-22T00:12:25;7.30;;;4.10;;
69894;SDS011;57172;52.034;5.090;2023-06-22T00:14:52;7.33;;;3.70;;
69894;SDS011;57172;52.034;5.090;2023-06-22T00:17:18;7.53;;;4.20;;
69894;SDS011;57172;52.034;5.090;2023-06-22T00:19:47;7.03;;;3.67;;
69894;SDS011;57172;52.034;5.090;2023-06-22T00:22:14;5.93;;;3.80;;
69894;SDS011;57172;52.034;5.090;2023-06-22T00:24:40;6.20;;;4.00;;
69894;SDS011;57172;52.034;5.090;2023-06-22T00:27:08;7.83;;;3.87;;
69894;SDS011;57172;52.034;5.090;2023-06-22T00:29:35;7.35;;;3.88;;
69894;SDS011;57172;52.034;5.090;2023-06-22T00:32:01;8.02;;;3.97;;
69894;SDS011;57172;52.034;5.090;2023-06-22T00:34:29;7.93;;;3.97;;
69894;SDS011;57172;52.034;5.090;2023-06-22T00:36:58;8.32;;;4.20;;
69894;SDS011;57172;52.034;5.090;2023-06-22T00:39:26;9.10;;;4.60;;
69894;SDS011;57172;52.034;5.090;2023-06-22T00:41:52;7.95;;;4.30;;
69894;SDS011;57172;52.034;5.090;2023-06-22T00:44:19;8.82;;;4.50;;
69894;SDS011;57172;52.034;5.090;2023-06-22T00:46:46;7.75;;;4.50;;
69894;SDS011;57172;52.034;5.090;2023-06-22T00:49:13;7.72;;;4.45;;
69894;SDS011;57172;52.034;5.090;2023-06-22T00:51:40;9.83;;;4.67;;
69894;SDS011;57172;52.034;5.090;2023-06-22T00:54:14;10.25;;;4.70;;
69894;SDS011;57172;52.034;5.090;2023-06-22T00:56:41;8.57;;;4.93;;
69894;SDS011;57172;52.034;5.090;2023-06-22T00:59:10;8.68;;;4.68;;
69894;SDS011;57172;52.034;5.090;2023-06-22T01:01:38;9.48;;;5.00;;
69894;SDS011;57172;52.034;5.090;2023-06-22T01:04:07;11.20;;;4.70;;
69894;SDS011;57172;52.034;5.090;2023-06-22T01:06:57;10.35;;;4.80;;
69894;SDS011;57172;52.034;5.090;2023-06-22T01:09:49;8.95;;;4.97;;
69894;SDS011;57172;52.034;5.090;2023-06-22T01:12:25;12.25;;;5.80;;
69894;SDS011;57172;52.034;5.090;2023-06-22T01:15:02;10.02;;;5.18;;
69894;SDS011;57172;52.034;5.090;2023-06-22T01:17:36;10.17;;;5.53;;
69894;SDS011;57172;52.034;5.090;2023-06-22T01:20:09;9.93;;;5.60;;
69894;SDS011;57172;52.034;5.090;2023-06-22T01:30:57;9.63;;;5.60;;
69894;SDS011;57172;52.034;5.090;2023-06-22T01:33:33;10.15;;;5.55;;
69894;SDS011;57172;52.034;5.090;2023-06-22T01:36:03;11.23;;;5.60;;
69894;SDS011;57172;52.034;5.090;2023-06-22T01:38:31;9.75;;;5.60;;
69894;SDS011;57172;52.034;5.090;2023-06-22T01:41:00;9.43;;;5.15;;
69894;SDS011;57172;52.034;5.090;2023-06-22T01:43:27;12.67;;;5.77;;
69894;SDS011;57172;52.034;5.090;2023-06-22T01:45:55;11.70;;;5.88;;
69894;SDS011;57172;52.034;5.090;2023-06-22T01:48:24;10.43;;;5.78;;
69894;SDS011;57172;52.034;5.090;2023-06-22T01:50:53;10.18;;;5.43;;
69894;SDS011;57172;52.034;5.090;2023-06-22T01:53:24;11.52;;;5.97;;
69894;SDS011;57172;52.034;5.090;2023-06-22T01:55:51;10.50;;;5.97;;
69894;SDS011;57172;52.034;5.090;2023-06-22T01:58:19;11.32;;;5.80;;
69894;SDS011;57172;52.034;5.090;2023-06-22T02:00:53;10.55;;;5.95;;
69894;SDS011;57172;52.034;5.090;2023-06-22T02:03:31;13.48;;;6.63;;
69894;SDS011;57172;52.034;5.090;2023-06-22T02:06:05;10.85;;;6.03;;
69894;SDS011;57172;52.034;5.090;2023-06-22T02:08:38;12.03;;;6.30;;
69894;SDS011;57172;52.034;5.090;2023-06-22T02:11:09;12.25;;;6.32;;
69894;SDS011;57172;52.034;5.090;2023-06-22T02:13:38;15.07;;;6.60;;
69894;SDS011;57172;52.034;5.090;2023-06-22T02:16:10;11.45;;;6.32;;
69894;SDS011;57172;52.034;5.090;2023-06-22T02:18:45;10.02;;;6.00;;
69894;SDS011;57172;52.034;5.090;2023-06-22T02:21:13;10.97;;;6.43;;
69894;SDS011;57172;52.034;5.090;2023-06-22T02:23:41;12.50;;;6.43;;
69894;SDS011;57172;52.034;5.090;2023-06-22T02:26:07;14.88;;;6.78;;
69894;SDS011;57172;52.034;5.090;2023-06-22T02:28:35;12.52;;;6.32;;
69894;SDS011;57172;52.034;5.090;2023-06-22T02:31:02;12.18;;;6.43;;
69894;SDS011;57172;52.034;5.090;2023-06-22T02:33:29;13.03;;;7.03;;
69894;SDS011;57172;52.034;5.090;2023-06-22T02:35:56;14.88;;;6.53;;
69894;SDS011;57172;52.034;5.090;2023-06-22T02:38:23;13.27;;;6.18;;
69894;SDS011;57172;52.034;5.090;2023-06-22T02:40:51;13.15;;;7.05;;
69894;SDS011;57172;52.034;5.090;2023-06-22T02:43:18;12.05;;;6.32;;
69894;SDS011;57172;52.034;5.090;2023-06-22T02:45:44;11.13;;;6.13;;
69894;SDS011;57172;52.034;5.090;2023-06-22T02:48:11;14.15;;;6.60;;
69894;SDS011;57172;52.034;5.090;2023-06-22T02:50:39;14.07;;;7.15;;
69894;SDS011;57172;52.034;5.090;2023-06-22T02:53:06;13.35;;;6.68;;
69894;SDS011;57172;52.034;5.090;2023-06-22T02:55:36;12.75;;;6.63;;
69894;SDS011;57172;52.034;5.090;2023-06-22T02:58:03;12.40;;;6.80;;
69894;SDS011;57172;52.034;5.090;2023-06-22T03:00:34;10.90;;;6.32;;
69894;SDS011;57172;52.034;5.090;2023-06-22T03:03:01;11.75;;;6.40;;
69894;SDS011;57172;52.034;5.090;2023-06-22T03:05:28;10.82;;;6.30;;
69894;SDS011;57172;52.034;5.090;2023-06-22T03:07:57;12.38;;;6.30;;
69894;SDS011;57172;52.034;5.090;2023-06-22T03:10:25;12.13;;;6.33;;
69894;SDS011;57172;52.034;5.090;2023-06-22T03:12:53;11.30;;;6.35;;
69894;SDS011;57172;52.034;5.090;2023-06-22T03:15:21;10.60;;;5.82;;
69894;SDS011;57172;52.034;5.090;2023-06-22T03:17:50;11.88;;;5.80;;
69894;SDS011;57172;52.034;5.090;2023-06-22T03:20:17;13.02;;;6.70;;
69894;SDS011;57172;52.034;5.090;2023-06-22T03:22:45;11.93;;;6.67;;
69894;SDS011;57172;52.034;5.090;2023-06-22T03:25:12;12.25;;;6.45;;
69894;SDS011;57172;52.034;5.090;2023-06-22T03:27:43;13.00;;;5.82;;
69894;SDS011;57172;52.034;5.090;2023-06-22T03:30:11;14.80;;;6.25;;
69894;SDS011;57172;52.034;5.090;2023-06-22T03:32:38;12.75;;;5.85;;
69894;SDS011;57172;52.034;5.090;2023-06-22T03:35:05;12.33;;;5.93;;
69894;SDS011;57172;52.034;5.090;2023-06-22T03:37:35;11.80;;;5.97;;
69894;SDS011;57172;52.034;5.090;2023-06-22T03:40:02;13.18;;;6.13;;
69894;SDS011;57172;52.034;5.090;2023-06-22T03:42:34;12.15;;;5.95;;
69894;SDS011;57172;52.034;5.090;2023-06-22T03:45:02;10.82;;;5.88;;
69894;SDS011;57172;52.034;5.090;2023-06-22T03:47:30;13.40;;;6.00;;
69894;SDS011;57172;52.034;5.090;2023-06-22T03:49:57;11.95;;;6.50;;
69894;SDS011;57172;52.034;5.090;2023-06-22T03:52:24;12.15;;;6.20;;
69894;SDS011;57172;52.034;5.090;2023-06-22T03:54:51;11.23;;;5.97;;
69894;SDS011;57172;52.034;5.090;2023-06-22T03:57:18;11.48;;;5.90;;
69894;SDS011;57172;52.034;5.090;2023-06-22T03:59:45;13.63;;;6.33;;
69894;SDS011;57172;52.034;5.090;2023-06-22T04:02:12;12.90;;;5.95;;
69894;SDS011;57172;52.034;5.090;2023-06-22T04:04:39;13.90;;;6.15;;
69894;SDS011;57172;52.034;5.090;2023-06-22T04:07:07;11.85;;;6.50;;
69894;SDS011;57172;52.034;5.090;2023-06-22T04:09:35;12.30;;;6.30;;
69894;SDS011;57172;52.034;5.090;2023-06-22T04:12:02;11.47;;;5.53;;
69894;SDS011;57172;52.034;5.090;2023-06-22T04:14:29;14.13;;;6.70;;
69894;SDS011;57172;52.034;5.090;2023-06-22T04:16:57;14.10;;;7.45;;
69894;SDS011;57172;52.034;5.090;2023-06-22T04:19:24;13.60;;;7.35;;
69894;SDS011;57172;52.034;5.090;2023-06-22T04:21:51;16.23;;;7.88;;
69894;SDS011;57172;52.034;5.090;2023-06-22T04:24:18;12.93;;;7.40;;
69894;SDS011;57172;52.034;5.090;2023-06-22T04:26:44;12.43;;;7.07;;
69894;SDS011;57172;52.034;5.090;2023-06-22T04:29:13;16.35;;;7.88;;
69894;SDS011;57172;52.034;5.090;2023-06-22T04:31:40;14.95;;;7.28;;
69894;SDS011;57172;52.034;5.090;2023-06-22T04:34:07;17.20;;;7.97;;
69894;SDS011;57172;52.034;5.090;2023-06-22T04:36:38;16.10;;;7.83;;
69894;SDS011;57172;52.034;5.090;2023-06-22T04:39:08;16.73;;;7.47;;
69894;SDS011;57172;52.034;5.090;2023-06-22T04:41:38;21.52;;;8.88;;
69894;SDS011;57172;52.034;5.090;2023-06-22T04:46:52;22.90;;;8.27;;
69894;SDS011;57172;52.034;5.090;2023-06-22T04:49:27;17.03;;;7.87;;
69894;SDS011;57172;52.034;5.090;2023-06-22T04:52:03;15.73;;;7.70;;
69894;SDS011;57172;52.034;5.090;2023-06-22T04:54:31;16.77;;;8.00;;
69894;SDS011;57172;52.034;5.090;2023-06-22T04:56:59;14.98;;;7.68;;
69894;SDS011;57172;52.034;5.090;2023-06-22T04:59:28;18.65;;;8.70;;
69894;SDS011;57172;52.034;5.090;2023-06-22T05:01:57;17.57;;;8.47;;
69894;SDS011;57172;52.034;5.090;2023-06-22T05:04:25;13.93;;;7.80;;
69894;SDS011;57172;52.034;5.090;2023-06-22T05:06:54;14.77;;;7.65;;
69894;SDS011;57172;52.034;5.090;2023-06-22T05:09:21;14.65;;;8.18;;
69894;SDS011;57172;52.034;5.090;2023-06-22T05:11:48;14.00;;;8.05;;
69894;SDS011;57172;52.034;5.090;2023-06-22T05:14:15;14.57;;;8.00;;
69894;SDS011;57172;52.034;5.090;2023-06-22T05:16:42;15.63;;;8.60;;
69894;SDS011;57172;52.034;5.090;2023-06-22T05:19:10;14.90;;;7.75;;
69894;SDS011;57172;52.034;5.090;2023-06-22T05:21:37;13.70;;;7.85;;
69894;SDS011;57172;52.034;5.090;2023-06-22T05:24:04;15.15;;;7.78;;
69894;SDS011;57172;52.034;5.090;2023-06-22T05:26:32;15.57;;;7.67;;
69894;SDS011;57172;52.034;5.090;2023-06-22T05:29:01;13.90;;;7.53;;
69894;SDS011;57172;52.034;5.090;2023-06-22T05:31:28;13.02;;;7.40;;
69894;SDS011;57172;52.034;5.090;2023-06-22T05:33:56;13.95;;;7.47;;
69894;SDS011;57172;52.034;5.090;2023-06-22T05:36:23;14.18;;;7.38;;
69894;SDS011;57172;52.034;5.090;2023-06-22T05:38:52;11.53;;;7.30;;
69894;SDS011;57172;52.034;5.090;2023-06-22T05:41:19;14.00;;;7.13;;
69894;SDS011;57172;52.034;5.090;2023-06-22T05:43:46;15.52;;;7.55;;
69894;SDS011;57172;52.034;5.090;2023-06-22T05:46:13;16.45;;;7.35;;
69894;SDS011;57172;52.034;5.090;2023-06-22T05:48:40;14.27;;;7.47;;
69894;SDS011;57172;52.034;5.090;2023-06-22T05:51:07;14.13;;;7.10;;
69894;SDS011;57172;52.034;5.090;2023-06-22T05:53:34;14.13;;;7.40;;
69894;SDS011;57172;52.034;5.090;2023-06-22T05:56:01;9.70;;;6.10;;
69894;SDS011;57172;52.034;5.090;2023-06-22T05:58:28;14.65;;;6.07;;
69894;SDS011;57172;52.034;5.090;2023-06-22T06:00:55;15.57;;;7.07;;
69894;SDS011;57172;52.034;5.090;2023-06-22T06:03:22;11.37;;;6.33;;
69894;SDS011;57172;52.034;5.090;2023-06-22T06:05:49;13.63;;;6.80;;
69894;SDS011;57172;52.034;5.090;2023-06-22T06:08:16;12.70;;;6.15;;
69894;SDS011;57172;52.034;5.090;2023-06-22T06:10:43;14.93;;;7.10;;
69894;SDS011;57172;52.034;5.090;2023-06-22T06:13:10;12.48;;;7.10;;
69894;SDS011;57172;52.034;5.090;2023-06-22T06:15:37;12.80;;;7.87;;
69894;SDS011;57172;52.034;5.090;2023-06-22T06:18:04;14.77;;;8.20;;
69894;SDS011;57172;52.034;5.090;2023-06-22T06:20:33;15.85;;;9.27;;
69894;SDS011;57172;52.034;5.090;2023-06-22T06:23:00;16.13;;;9.13;;
69894;SDS011;57172;52.034;5.090;2023-06-22T06:25:28;18.83;;;9.98;;
69894;SDS011;57172;52.034;5.090;2023-06-22T06:27:54;17.40;;;10.60;;
69894;SDS011;57172;52.034;5.090;2023-06-22T06:30:22;17.77;;;11.52;;
69894;SDS011;57172;52.034;5.090;2023-06-22T06:32:49;18.05;;;11.23;;
69894;SDS011;57172;52.034;5.090;2023-06-22T06:35:16;18.83;;;10.93;;
69894;SDS011;57172;52.034;5.090;2023-06-22T06:37:44;19.75;;;11.45;;
69894;SDS011;57172;52.034;5.090;2023-06-22T06:40:15;18.97;;;11.60;;
69894;SDS011;57172;52.034;5.090;2023-06-22T06:42:44;20.00;;;12.40;;
69894;SDS011;57172;52.034;5.090;2023-06-22T06:45:15;19.50;;;11.68;;
69894;SDS011;57172;52.034;5.090;2023-06-22T06:47:44;18.35;;;11.48;;
69894;SDS011;57172;52.034;5.090;2023-06-22T06:50:12;18.38;;;11.60;;
69894;SDS011;57172;52.034;5.090;2023-06-22T06:52:39;16.63;;;10.43;;
69894;SDS011;57172;52.034;5.090;2023-06-22T06:55:06;18.08;;;10.45;;
69894;SDS011;57172;52.034;5.090;2023-06-22T06:57:38;16.98;;;10.50;;
69894;SDS011;57172;52.034;5.090;2023-06-22T07:00:13;16.73;;;10.05;;
69894;SDS011;57172;52.034;5.090;2023-06-22T07:02:42;16.58;;;9.98;;
69894;SDS011;57172;52.034;5.090;2023-06-22T07:05:10;16.23;;;10.13;;
69894;SDS011;57172;52.034;5.090;2023-06-22T07:07:39;20.30;;;11.30;;
69894;SDS011;57172;52.034;5.090;2023-06-22T07:10:06;18.38;;;10.35;;
69894;SDS011;57172;52.034;5.090;2023-06-22T07:12:33;18.17;;;10.35;;
69894;SDS011;57172;52.034;5.090;2023-06-22T07:15:04;18.02;;;10.13;;
69894;SDS011;57172;52.034;5.090;2023-06-22T07:17:36;16.77;;;10.20;;
69894;SDS011;57172;52.034;5.090;2023-06-22T07:20:05;15.25;;;9.27;;
69894;SDS011;57172;52.034;5.090;2023-06-22T07:22:38;15.80;;;9.10;;
69894;SDS011;57172;52.034;5.090;2023-06-22T07:25:06;17.38;;;10.30;;
69894;SDS011;57172;52.034;5.090;2023-06-22T07:27:44;14.27;;;9.50;;
69894;SDS011;57172;52.034;5.090;2023-06-22T07:30:12;13.83;;;9.30;;
69894;SDS011;57172;52.034;5.090;2023-06-22T07:32:40;14.15;;;8.95;;
69894;SDS011;57172;52.034;5.090;2023-06-22T07:35:07;14.35;;;9.57;;
69894;SDS011;57172;52.034;5.090;2023-06-22T07:37:34;14.48;;;9.30;;
69894;SDS011;57172;52.034;5.090;2023-06-22T07:40:02;14.80;;;9.48;;
69894;SDS011;57172;52.034;5.090;2023-06-22T07:42:32;13.97;;;9.53;;
69894;SDS011;57172;52.034;5.090;2023-06-22T07:44:59;14.43;;;9.18;;
69894;SDS011;57172;52.034;5.090;2023-06-22T07:47:28;17.02;;;9.45;;
69894;SDS011;57172;52.034;5.090;2023-06-22T07:49:55;15.25;;;9.65;;
69894;SDS011;57172;52.034;5.090;2023-06-22T07:52:24;14.05;;;8.77;;
69894;SDS011;57172;52.034;5.090;2023-06-22T07:54:54;15.43;;;9.60;;
69894;SDS011;57172;52.034;5.090;2023-06-22T07:57:21;16.15;;;8.25;;
69894;SDS011;57172;52.034;5.090;2023-06-22T07:59:48;14.23;;;8.70;;
69894;SDS011;57172;52.034;5.090;2023-06-22T08:02:15;19.95;;;8.27;;
69894;SDS011;57172;52.034;5.090;2023-06-22T08:04:42;13.63;;;8.90;;
69894;SDS011;57172;52.034;5.090;2023-06-22T08:07:09;12.70;;;8.50;;
69894;SDS011;57172;52.034;5.090;2023-06-22T08:09:36;13.60;;;7.80;;
69894;SDS011;57172;52.034;5.090;2023-06-22T08:12:03;13.52;;;7.65;;
69894;SDS011;57172;52.034;5.090;2023-06-22T08:14:31;13.95;;;8.18;;
69894;SDS011;57172;52.034;5.090;2023-06-22T08:16:58;11.32;;;6.70;;
69894;SDS011;57172;52.034;5.090;2023-06-22T08:19:25;10.47;;;5.67;;
69894;SDS011;57172;52.034;5.090;2023-06-22T08:21:52;9.25;;;5.63;;
69894;SDS011;57172;52.034;5.090;2023-06-22T08:24:19;9.18;;;5.60;;
69894;SDS011;57172;52.034;5.090;2023-06-22T08:26:46;8.38;;;4.82;;
69894;SDS011;57172;52.034;5.090;2023-06-22T08:29:12;10.05;;;5.85;;
69894;SDS011;57172;52.034;5.090;2023-06-22T08:31:44;7.43;;;4.73;;
69894;SDS011;57172;52.034;5.090;2023-06-22T08:34:11;8.45;;;5.57;;
69894;SDS011;57172;52.034;5.090;2023-06-22T08:36:40;10.25;;;5.57;;
69894;SDS011;57172;52.034;5.090;2023-06-22T08:39:09;8.45;;;5.28;;
69894;SDS011;57172;52.034;5.090;2023-06-22T08:41:36;8.82;;;5.63;;
69894;SDS011;57172;52.034;5.090;2023-06-22T08:44:03;7.13;;;4.60;;
69894;SDS011;57172;52.034;5.090;2023-06-22T08:46:30;9.30;;;5.38;;
69894;SDS011;57172;52.034;5.090;2023-06-22T08:48:59;7.85;;;5.03;;
69894;SDS011;57172;52.034;5.090;2023-06-22T08:51:27;8.80;;;5.00;;
69894;SDS011;57172;52.034;5.090;2023-06-22T08:53:54;6.82;;;4.38;;
69894;SDS011;57172;52.034;5.090;2023-06-22T08:56:21;6.90;;;3.90;;
69894;SDS011;57172;52.034;5.090;2023-06-22T08:58:48;5.88;;;3.92;;
69894;SDS011;57172;52.034;5.090;2023-06-22T09:01:15;6.18;;;3.55;;
69894;SDS011;57172;52.034;5.090;2023-06-22T09:03:42;5.68;;;3.80;;
69894;SDS011;57172;52.034;5.090;2023-06-22T09:06:09;6.45;;;4.28;;
69894;SDS011;57172;52.034;5.090;2023-06-22T09:08:36;6.63;;;4.00;;
69894;SDS011;57172;52.034;5.090;2023-06-22T09:11:03;6.72;;;4.20;;
69894;SDS011;57172;52.034;5.090;2023-06-22T09:13:31;7.20;;;4.20;;
69894;SDS011;57172;52.034;5.090;2023-06-22T09:15:59;8.20;;;4.70;;
69894;SDS011;57172;52.034;5.090;2023-06-22T09:18:26;7.70;;;4.40;;
69894;SDS011;57172;52.034;5.090;2023-06-22T09:20:53;8.43;;;5.13;;
69894;SDS011;57172;52.034;5.090;2023-06-22T09:23:19;7.00;;;4.30;;
69894;SDS011;57172;52.034;5.090;2023-06-22T09:25:46;8.23;;;4.38;;
69894;SDS011;57172;52.034;5.090;2023-06-22T09:28:14;6.18;;;4.20;;
69894;SDS011;57172;52.034;5.090;2023-06-22T09:30:42;5.82;;;4.05;;
69894;SDS011;57172;52.034;5.090;2023-06-22T09:33:11;7.40;;;4.50;;
69894;SDS011;57172;52.034;5.090;2023-06-22T09:35:38;9.18;;;5.00;;
69894;SDS011;57172;52.034;5.090;2023-06-22T09:38:05;7.75;;;4.90;;
69894;SDS011;57172;52.034;5.090;2023-06-22T09:40:32;7.90;;;4.60;;
69894;SDS011;57172;52.034;5.090;2023-06-22T09:43:01;7.60;;;4.18;;
69894;SDS011;57172;52.034;5.090;2023-06-22T09:45:28;6.47;;;4.20;;
69894;SDS011;57172;52.034;5.090;2023-06-22T09:47:56;6.10;;;3.95;;
69894;SDS011;57172;52.034;5.090;2023-06-22T09:50:23;6.22;;;4.20;;
69894;SDS011;57172;52.034;5.090;2023-06-22T09:52:50;5.82;;;4.13;;
69894;SDS011;57172;52.034;5.090;2023-06-22T09:55:21;8.00;;;4.80;;
69894;SDS011;57172;52.034;5.090;2023-06-22T09:57:48;7.13;;;4.77;;
69894;SDS011;57172;52.034;5.090;2023-06-22T10:00:16;7.03;;;4.80;;
69894;SDS011;57172;52.034;5.090;2023-06-22T10:02:45;6.32;;;4.65;;
69894;SDS011;57172;52.034;5.090;2023-06-22T10:05:13;7.35;;;4.07;;
69894;SDS011;57172;52.034;5.090;2023-06-22T10:07:40;5.70;;;3.90;;
69894;SDS011;57172;52.034;5.090;2023-06-22T10:10:10;6.70;;;4.30;;
69894;SDS011;57172;52.034;5.090;2023-06-22T10:12:41;6.15;;;4.05;;
69894;SDS011;57172;52.034;5.090;2023-06-22T10:15:20;7.53;;;4.53;;
69894;SDS011;57172;52.034;5.090;2023-06-22T10:17:47;6.45;;;4.07;;
69894;SDS011;57172;52.034;5.090;2023-06-22T10:20:14;5.30;;;3.80;;
69894;SDS011;57172;52.034;5.090;2023-06-22T10:22:42;7.77;;;3.90;;
69894;SDS011;57172;52.034;5.090;2023-06-22T10:25:11;6.22;;;4.60;;
69894;SDS011;57172;52.034;5.090;2023-06-22T10:27:39;8.90;;;4.00;;
69894;SDS011;57172;52.034;5.090;2023-06-22T10:30:07;6.47;;;3.80;;
69894;SDS011;57172;52.034;5.090;2023-06-22T10:32:35;7.13;;;3.83;;
69894;SDS011;57172;52.034;5.090;2023-06-22T10:35:04;7.03;;;4.20;;
69894;SDS011;57172;52.034;5.090;2023-06-22T10:37:31;6.10;;;3.63;;
69894;SDS011;57172;52.034;5.090;2023-06-22T10:39:58;8.80;;;4.15;;
69894;SDS011;57172;52.034;5.090;2023-06-22T10:42:25;6.93;;;4.50;;
69894;SDS011;57172;52.034;5.090;2023-06-22T10:44:52;7.25;;;4.20;;
69894;SDS011;57172;52.034;5.090;2023-06-22T10:47:19;7.10;;;4.00;;
69894;SDS011;57172;52.034;5.090;2023-06-22T10:49:47;6.90;;;4.32;;
69894;SDS011;57172;52.034;5.090;2023-06-22T10:52:14;6.97;;;3.97;;
69894;SDS011;57172;52.034;5.090;2023-06-22T10:54:41;6.20;;;3.78;;
69894;SDS011;57172;52.034;5.090;2023-06-22T10:57:08;7.25;;;4.47;;
69894;SDS011;57172;52.034;5.090;2023-06-22T10:59:35;8.20;;;4.53;;
69894;SDS011;57172;52.034;5.090;2023-06-22T11:02:02;7.93;;;4.75;;
69894;SDS011;57172;52.034;5.090;2023-06-22T11:04:29;6.65;;;4.28;;
69894;SDS011;57172;52.034;5.090;2023-06-22T11:06:56;8.60;;;5.22;;
69894;SDS011;57172;52.034;5.090;2023-06-22T11:09:23;7.93;;;5.05;;
69894;SDS011;57172;52.034;5.090;2023-06-22T11:11:55;8.27;;;5.03;;
69894;SDS011;57172;52.034;5.090;2023-06-22T11:14:22;6.45;;;4.47;;
69894;SDS011;57172;52.034;5.090;2023-06-22T11:16:49;8.95;;;4.90;;
69894;SDS011;57172;52.034;5.090;2023-06-22T11:19:16;6.00;;;4.32;;
69894;SDS011;57172;52.034;5.090;2023-06-22T11:21:43;7.85;;;5.10;;
69894;SDS011;57172;52.034;5.090;2023-06-22T11:24:10;8.20;;;5.13;;
69894;SDS011;57172;52.034;5.090;2023-06-22T11:26:37;7.60;;;5.20;;
69894;SDS011;57172;52.034;5.090;2023-06-22T11:29:04;7.03;;;5.15;;
69894;SDS011;57172;52.034;5.090;2023-06-22T11:31:32;7.80;;;4.53;;
69894;SDS011;57172;52.034;5.090;2023-06-22T11:33:59;9.60;;;5.13;;
69894;SDS011;57172;52.034;5.090;2023-06-22T11:36:26;8.00;;;4.80;;
69894;SDS011;57172;52.034;5.090;2023-06-22T11:38:53;8.60;;;5.35;;
69894;SDS011;57172;52.034;5.090;2023-06-22T11:41:20;7.30;;;5.00;;
69894;SDS011;57172;52.034;5.090;2023-06-22T11:43:47;9.98;;;5.53;;
69894;SDS011;57172;52.034;5.090;2023-06-22T11:46:14;6.75;;;4.45;;
69894;SDS011;57172;52.034;5.090;2023-06-22T11:48:41;7.53;;;5.30;;
69894;SDS011;57172;52.034;5.090;2023-06-22T11:51:08;8.60;;;5.93;;
69894;SDS011;57172;52.034;5.090;2023-06-22T11:53:35;9.02;;;5.55;;
69894;SDS011;57172;52.034;5.090;2023-06-22T11:56:02;11.48;;;5.93;;
69894;SDS011;57172;52.034;5.090;2023-06-22T11:58:29;10.60;;;5.90;;
69894;SDS011;57172;52.034;5.090;2023-06-22T12:00:56;8.20;;;5.47;;
69894;SDS011;57172;52.034;5.090;2023-06-22T12:03:23;6.47;;;4.70;;
69894;SDS011;57172;52.034;5.090;2023-06-22T12:05:50;9.63;;;5.82;;
69894;SDS011;57172;52.034;5.090;2023-06-22T12:08:18;10.68;;;5.80;;
69894;SDS011;57172;52.034;5.090;2023-06-22T12:10:45;7.75;;;5.47;;
69894;SDS011;57172;52.034;5.090;2023-06-22T12:13:12;10.17;;;6.43;;
69894;SDS011;57172;52.034;5.090;2023-06-22T12:15:39;9.40;;;6.00;;
69894;SDS011;57172;52.034;5.090;2023-06-22T12:18:06;9.40;;;6.18;;
69894;SDS011;57172;52.034;5.090;2023-06-22T12:20:34;10.65;;;7.00;;
69894;SDS011;57172;52.034;5.090;2023-06-22T12:23:01;9.35;;;6.60;;
69894;SDS011;57172;52.034;5.090;2023-06-22T12:25:28;13.23;;;6.27;;
69894;SDS011;57172;52.034;5.090;2023-06-22T12:27:55;11.05;;;5.90;;
69894;SDS011;57172;52.034;5.090;2023-06-22T12:30:22;9.65;;;6.22;;
69894;SDS011;57172;52.034;5.090;2023-06-22T12:32:49;11.60;;;7.03;;
69894;SDS011;57172;52.034;5.090;2023-06-22T12:35:19;11.55;;;7.00;;
69894;SDS011;57172;52.034;5.090;2023-06-22T12:37:47;11.20;;;7.20;;
69894;SDS011;57172;52.034;5.090;2023-06-22T12:40:13;9.70;;;6.80;;
69894;SDS011;57172;52.034;5.090;2023-06-22T12:42:41;11.35;;;7.13;;
69894;SDS011;57172;52.034;5.090;2023-06-22T12:45:09;11.38;;;7.10;;
69894;SDS011;57172;52.034;5.090;2023-06-22T12:47:36;11.98;;;7.50;;
69894;SDS011;57172;52.034;5.090;2023-06-22T12:50:03;11.20;;;7.10;;
69894;SDS011;57172;52.034;5.090;2023-06-22T12:52:30;13.35;;;7.75;;
69894;SDS011;57172;52.034;5.090;2023-06-22T12:54:58;10.57;;;7.15;;
69894;SDS011;57172;52.034;5.090;2023-06-22T12:57:25;12.35;;;7.97;;
69894;SDS011;57172;52.034;5.090;2023-06-22T12:59:52;12.82;;;8.20;;
69894;SDS011;57172;52.034;5.090;2023-06-22T13:02:19;13.07;;;8.27;;
69894;SDS011;57172;52.034;5.090;2023-06-22T13:04:46;12.95;;;8.20;;
69894;SDS011;57172;52.034;5.090;2023-06-22T13:07:13;14.40;;;8.35;;
69894;SDS011;57172;52.034;5.090;2023-06-22T13:09:49;15.95;;;8.55;;
69894;SDS011;57172;52.034;5.090;2023-06-22T13:12:20;14.13;;;8.70;;
69894;SDS011;57172;52.034;5.090;2023-06-22T13:14:48;14.87;;;9.50;;
69894;SDS011;57172;52.034;5.090;2023-06-22T13:17:15;12.82;;;8.95;;
69894;SDS011;57172;52.034;5.090;2023-06-22T13:19:42;17.30;;;10.18;;
69894;SDS011;57172;52.034;5.090;2023-06-22T13:22:26;14.32;;;9.45;;
69894;SDS011;57172;52.034;5.090;2023-06-22T13:24:55;15.32;;;9.82;;
69894;SDS011;57172;52.034;5.090;2023-06-22T13:27:22;17.03;;;9.90;;
69894;SDS011;57172;52.034;5.090;2023-06-22T13:29:50;17.10;;;10.68;;
69894;SDS011;57172;52.034;5.090;2023-06-22T13:32:17;16.48;;;10.70;;
69894;SDS011;57172;52.034;5.090;2023-06-22T13:34:44;16.25;;;11.43;;
69894;SDS011;57172;52.034;5.090;2023-06-22T13:37:11;18.55;;;10.63;;
69894;SDS011;57172;52.034;5.090;2023-06-22T13:39:38;17.50;;;10.77;;
69894;SDS011;57172;52.034;5.090;2023-06-22T13:42:05;16.98;;;10.65;;
69894;SDS011;57172;52.034;5.090;2023-06-22T13:44:32;17.85;;;11.13;;
69894;SDS011;57172;52.034;5.090;2023-06-22T13:46:59;16.67;;;11.27;;
69894;SDS011;57172;52.034;5.090;2023-06-22T13:49:26;16.80;;;11.57;;
69894;SDS011;57172;52.034;5.090;2023-06-22T13:51:53;17.00;;;11.53;;
69894;SDS011;57172;52.034;5.090;2023-06-22T13:54:20;16.60;;;11.25;;
69894;SDS011;57172;52.034;5.090;2023-06-22T13:56:55;18.35;;;11.43;;
69894;SDS011;57172;52.034;5.090;2023-06-22T13:59:22;18.08;;;11.63;;
69894;SDS011;57172;52.034;5.090;2023-06-22T14:01:49;17.88;;;11.75;;
69894;SDS011;57172;52.034;5.090;2023-06-22T14:04:16;16.73;;;11.23;;
69894;SDS011;57172;52.034;5.090;2023-06-22T14:06:43;18.40;;;11.82;;
69894;SDS011;57172;52.034;5.090;2023-06-22T14:09:10;16.33;;;11.02;;
69894;SDS011;57172;52.034;5.090;2023-06-22T14:11:37;16.65;;;11.60;;
69894;SDS011;57172;52.034;5.090;2023-06-22T14:14:04;16.30;;;11.60;;
69894;SDS011;57172;52.034;5.090;2023-06-22T14:16:31;17.07;;;11.43;;
69894;SDS011;57172;52.034;5.090;2023-06-22T14:18:58;16.90;;;11.32;;
69894;SDS011;57172;52.034;5.090;2023-06-22T14:21:25;19.17;;;11.43;;
69894;SDS011;57172;52.034;5.090;2023-06-22T14:23:53;17.95;;;11.13;;
69894;SDS011;57172;52.034;5.090;2023-06-22T14:26:19;16.98;;;11.02;;
69894;SDS011;57172;52.034;5.090;2023-06-22T14:28:47;16.23;;;10.60;;
69894;SDS011;57172;52.034;5.090;2023-06-22T14:31:17;16.48;;;10.57;;
69894;SDS011;57172;52.034;5.090;2023-06-22T14:33:47;14.95;;;10.57;;
69894;SDS011;57172;52.034;5.090;2023-06-22T14:36:15;18.48;;;10.30;;
69894;SDS011;57172;52.034;5.090;2023-06-22T14:38:43;15.80;;;10.55;;
69894;SDS011;57172;52.034;5.090;2023-06-22T14:41:10;15.13;;;10.07;;
69894;SDS011;57172;52.034;5.090;2023-06-22T14:43:44;15.52;;;10.10;;
69894;SDS011;57172;52.034;5.090;2023-06-22T14:46:13;15.35;;;9.82;;
69894;SDS011;57172;52.034;5.090;2023-06-22T14:48:41;15.20;;;9.77;;
69894;SDS011;57172;52.034;5.090;2023-06-22T14:51:08;14.68;;;10.20;;
69894;SDS011;57172;52.034;5.090;2023-06-22T14:53:39;13.13;;;9.10;;